createdAt,value
2018-06-09T00:00:14.084Z,98501.06
2018-06-09T00:02:43.931Z,98501.84
2018-06-09T00:05:12.925Z,98503.76
2018-06-09T00:07:41.988Z,98495.48
2018-06-09T00:10:10.925Z,98499.59
2018-06-09T00:12:40.138Z,98493.17
2018-06-09T00:15:10.087Z,98498.88
2018-06-09T00:17:39.703Z,98504.56
2018-06-09T00:20:09.509Z,98491.26
2018-06-09T00:22:38.435Z,98497.74
2018-06-09T00:25:07.449Z,98496.25
2018-06-09T00:27:37.083Z,98493.92
2018-06-09T00:30:06.401Z,98485.03
2018-06-09T00:32:35.375Z,98483.87
2018-06-09T00:35:04.503Z,98484.81
2018-06-09T00:37:33.440Z,98481.17
2018-06-09T00:40:02.371Z,98475.83
2018-06-09T00:42:31.485Z,98472.42
2018-06-09T00:45:00.443Z,98467.14
2018-06-09T00:47:29.472Z,98462.69
2018-06-09T00:49:59.810Z,98464.50
2018-06-09T00:52:28.702Z,98468.28
2018-06-09T00:54:57.609Z,98461.05
2018-06-09T00:57:26.583Z,98460.45
2018-06-09T00:59:55.618Z,98458.52
2018-06-09T01:02:24.554Z,98457.55
2018-06-09T01:04:53.621Z,98450.84
2018-06-09T01:07:23.769Z,98443.16
2018-06-09T01:09:52.766Z,98440.08
2018-06-09T01:12:22.759Z,98433.42
2018-06-09T01:14:52.248Z,98436.44
2018-06-09T01:17:21.364Z,98436.94
2018-06-09T01:19:51.454Z,98427.94
2018-06-09T01:22:20.519Z,98426.06
2018-06-09T01:24:49.415Z,98422.48
2018-06-09T01:27:19.661Z,98416.20
2018-06-09T01:29:49.672Z,98413.19
2018-06-09T01:32:19.547Z,98415.39
2018-06-09T01:34:48.551Z,98415.09
2018-06-09T01:37:17.589Z,98406.23
2018-06-09T01:39:46.554Z,98405.39
2018-06-09T01:42:15.479Z,98403.72
2018-06-09T01:44:44.468Z,98397.13
2018-06-09T01:47:13.792Z,98386.53
2018-06-09T01:49:44.152Z,98386.66
2018-06-09T01:52:13.127Z,98385.83
2018-06-09T01:54:42.041Z,98390.14
2018-06-09T01:57:12.275Z,98387.67
2018-06-09T01:59:42.288Z,98390.95
2018-06-09T02:02:12.030Z,98389.34
2018-06-09T02:04:41.483Z,98383.29
2018-06-09T02:07:10.897Z,98381.34
2018-06-09T02:09:39.819Z,98378.30
2018-06-09T02:12:08.883Z,98376.06
2018-06-09T02:14:37.783Z,98384.26
2018-06-09T02:17:06.806Z,98384.16
2018-06-09T02:19:35.843Z,98383.53
2018-06-09T02:22:04.819Z,98389.34
2018-06-09T02:24:34.500Z,98386.60
2018-06-09T02:27:03.558Z,98387.44
2018-06-09T02:29:32.512Z,98389.11
2018-06-09T02:32:01.472Z,98389.95
2018-06-09T02:34:31.014Z,98390.31
2018-06-09T02:37:00.041Z,98387.27
2018-06-09T02:39:29.020Z,98383.16
2018-06-09T02:41:58.072Z,98380.15
2018-06-09T02:44:27.026Z,98379.38
2018-06-09T02:46:55.955Z,98382.95
2018-06-09T02:49:25.023Z,98384.53
2018-06-09T02:51:54.133Z,98388.34
2018-06-09T02:54:23.136Z,98387.80
2018-06-09T02:56:52.195Z,98395.80
2018-06-09T02:59:21.116Z,98388.34
2018-06-09T03:01:50.098Z,98391.38
2018-06-09T03:04:20.024Z,98388.14
2018-06-09T03:06:48.958Z,98396.73
2018-06-09T03:09:17.871Z,98391.75
2018-06-09T03:11:47.282Z,98392.25
2018-06-09T03:14:17.201Z,98390.02
2018-06-09T03:16:46.109Z,98390.78
2018-06-09T03:19:15.785Z,98386.63
2018-06-09T03:21:44.711Z,98390.51
2018-06-09T03:24:13.624Z,98379.58
2018-06-09T03:26:42.687Z,98382.63
2018-06-09T03:29:11.676Z,98380.52
2018-06-09T03:31:41.163Z,98374.56
2018-06-09T03:34:10.236Z,98378.78
2018-06-09T03:36:39.243Z,98378.51
2018-06-09T03:39:08.820Z,98382.69
2018-06-09T03:41:37.783Z,98390.71
2018-06-09T03:44:07.389Z,98383.35
2018-06-09T03:46:36.331Z,98376.53
2018-06-09T03:49:05.549Z,98382.95
2018-06-09T03:51:35.546Z,98389.00
2018-06-09T03:54:04.515Z,98389.09
2018-06-09T03:56:33.527Z,98387.01
2018-06-09T03:59:02.473Z,98387.88
2018-06-09T04:01:31.448Z,98381.85
2018-06-09T04:04:00.600Z,98383.55
2018-06-09T04:06:29.569Z,98379.50
2018-06-09T04:08:58.467Z,98375.17
2018-06-09T04:11:27.583Z,98374.42
2018-06-09T04:13:56.589Z,98376.45
2018-06-09T04:16:25.615Z,98365.82
2018-06-09T04:18:55.137Z,98364.45
2018-06-09T04:21:24.371Z,98362.86
2018-06-09T04:23:53.337Z,98359.99
2018-06-09T04:26:22.307Z,98368.36
2018-06-09T04:28:51.217Z,98371.72
2018-06-09T04:31:20.163Z,98372.86
2018-06-09T04:33:49.197Z,98360.22
2018-06-09T04:36:18.128Z,98370.55
2018-06-09T04:38:47.048Z,98366.75
2018-06-09T04:41:16.057Z,98366.06
2018-06-09T04:43:45.044Z,98364.47
2018-06-09T04:46:14.024Z,98366.77
2018-06-09T04:48:43.741Z,98366.92
2018-06-09T04:51:13.230Z,98365.05
2018-06-09T04:53:42.188Z,98370.09
2018-06-09T04:56:11.282Z,98368.80
2018-06-09T04:58:41.197Z,98367.21
2018-06-09T05:01:10.138Z,98371.94
2018-06-09T05:03:39.090Z,98370.87
2018-06-09T05:06:08.051Z,98372.92
2018-06-09T05:08:37.502Z,98376.89
2018-06-09T05:11:06.506Z,98376.80
2018-06-09T05:13:35.520Z,98378.36
2018-06-09T05:16:04.534Z,98380.99
2018-06-09T05:18:33.569Z,98379.81
2018-06-09T05:21:02.678Z,98377.94
2018-06-09T05:23:31.695Z,98382.14
2018-06-09T05:26:00.860Z,98386.86
2018-06-09T05:28:29.764Z,98393.28
2018-06-09T05:30:58.772Z,98391.94
2018-06-09T05:33:27.818Z,98395.34
2018-06-09T05:35:57.836Z,98384.68
2018-06-09T05:38:26.791Z,98385.84
2018-06-09T05:40:55.748Z,98382.84
2018-06-09T05:43:24.715Z,98383.17
2018-06-09T05:45:54.207Z,98379.08
2018-06-09T05:48:23.841Z,98382.38
2018-06-09T05:50:52.839Z,98378.47
2018-06-09T05:53:22.429Z,98381.23
2018-06-09T05:55:51.576Z,98381.48
2018-06-09T05:58:20.547Z,98371.52
2018-06-09T06:00:49.665Z,98368.68
2018-06-09T06:03:18.802Z,98371.67
2018-06-09T06:05:48.248Z,98374.65
2018-06-09T06:08:17.257Z,98369.02
2018-06-09T06:10:46.470Z,98364.57
2018-06-09T06:13:15.547Z,98368.61
2018-06-09T06:15:44.538Z,98366.26
2018-06-09T06:18:13.574Z,98359.38
2018-06-09T06:20:42.707Z,98352.82
2018-06-09T06:23:11.647Z,98353.77
2018-06-09T06:25:40.907Z,98352.16
2018-06-09T06:28:10.285Z,98350.70
2018-06-09T06:30:39.294Z,98351.02
2018-06-09T06:33:08.329Z,98343.64
2018-06-09T06:35:37.318Z,98336.36
2018-06-09T06:38:06.353Z,98345.78
2018-06-09T06:40:35.455Z,98344.48
2018-06-09T06:43:04.392Z,98337.31
2018-06-09T06:45:33.998Z,98335.29
2018-06-09T06:48:02.977Z,98336.52
2018-06-09T06:50:31.918Z,98334.50
2018-06-09T06:53:00.846Z,98328.87
2018-06-09T06:55:30.157Z,98329.51
2018-06-09T06:57:59.071Z,98333.58
2018-06-09T07:00:28.063Z,98322.23
2018-06-09T07:02:57.081Z,98323.94
2018-06-09T07:05:26.108Z,98322.55
2018-06-09T07:07:55.102Z,98324.26
2018-06-09T07:10:27.388Z,98326.70
2018-06-09T07:12:58.167Z,98322.05
2018-06-09T07:15:27.236Z,98319.98
2018-06-09T07:17:56.241Z,98316.91
2018-06-09T07:20:25.190Z,98315.50
2018-06-09T07:22:54.196Z,98316.36
2018-06-09T07:25:23.204Z,98315.42
2018-06-09T07:27:53.078Z,98321.05
2018-06-09T07:30:22.269Z,98323.98
2018-06-09T07:32:52.256Z,98319.84
2018-06-09T07:35:21.224Z,98319.71
2018-06-09T07:37:50.333Z,98312.69
2018-06-09T07:40:19.273Z,98312.70
2018-06-09T07:42:48.700Z,98311.48
2018-06-09T07:45:17.741Z,98320.08
2018-06-09T07:47:46.836Z,98319.70
2018-06-09T07:50:15.873Z,98314.98
2018-06-09T07:52:45.776Z,98320.41
2018-06-09T07:55:15.593Z,98311.81
2018-06-09T07:57:44.518Z,98310.94
2018-06-09T08:00:13.544Z,98308.80
2018-06-09T08:02:42.524Z,98306.73
2018-06-09T08:05:11.969Z,98295.63
2018-06-09T08:07:41.023Z,98298.31
2018-06-09T08:10:09.962Z,98306.50
2018-06-09T08:12:38.918Z,98305.73
2018-06-09T08:15:08.000Z,98301.10
2018-06-09T08:17:36.924Z,98300.32
2018-06-09T08:20:06.375Z,98304.52
2018-06-09T08:22:36.380Z,98295.98
2018-06-09T08:25:05.412Z,98290.28
2018-06-09T08:27:34.433Z,98286.20
2018-06-09T08:30:03.728Z,98290.58
2018-06-09T08:32:32.681Z,98278.91
2018-06-09T08:35:01.610Z,98279.70
2018-06-09T08:37:31.165Z,98277.90
2018-06-09T08:40:00.174Z,98274.28
2018-06-09T08:42:29.207Z,98281.77
2018-06-09T08:44:58.251Z,98279.46
2018-06-09T08:47:27.988Z,98277.95
2018-06-09T08:49:56.968Z,98272.78
2018-06-09T08:52:25.959Z,98272.39
2018-06-09T08:54:54.881Z,98274.40
2018-06-09T08:57:23.870Z,98275.62
2018-06-09T08:59:52.987Z,98265.13
2018-06-09T09:02:21.912Z,98268.75
2018-06-09T09:04:50.899Z,98263.27
2018-06-09T09:07:20.026Z,98254.09
2018-06-09T09:09:49.065Z,98249.47
2018-06-09T09:12:18.601Z,98242.20
2018-06-09T09:14:47.810Z,98239.47
2018-06-09T09:17:16.781Z,98236.06
2018-06-09T09:19:45.761Z,98236.19
2018-06-09T09:22:15.372Z,98238.97
2018-06-09T09:24:44.325Z,98232.55
2018-06-09T09:27:13.315Z,98224.64
2018-06-09T09:29:42.371Z,98218.05
2018-06-09T09:32:11.981Z,98205.37
2018-06-09T09:34:41.003Z,98207.43
2018-06-09T09:37:10.700Z,98209.52
2018-06-09T09:39:39.648Z,98199.70
2018-06-09T09:42:08.583Z,98193.03
2018-06-09T09:44:37.764Z,98196.39
2018-06-09T09:47:06.973Z,98186.69
2018-06-09T09:49:35.969Z,98192.00
2018-06-09T09:52:04.960Z,98188.81
2018-06-09T09:54:33.879Z,98188.73
2018-06-09T09:57:02.876Z,98174.95
2018-06-09T09:59:32.044Z,98176.91
2018-06-09T10:02:01.116Z,98180.41
2018-06-09T10:04:30.173Z,98170.04
2018-06-09T10:06:59.185Z,98173.58
2018-06-09T10:09:28.777Z,98157.71
2018-06-09T10:11:57.729Z,98158.11
2018-06-09T10:14:26.873Z,98156.62
2018-06-09T10:16:56.434Z,98151.78
2018-06-09T10:19:25.394Z,98149.77
2018-06-09T10:21:54.445Z,98142.53
2018-06-09T10:24:23.375Z,98140.39
2018-06-09T10:26:52.408Z,98127.39
2018-06-09T10:29:22.181Z,98127.13
2018-06-09T10:31:51.764Z,98117.36
2018-06-09T10:34:22.931Z,98112.20
2018-06-09T10:36:51.887Z,98106.30
2018-06-09T10:39:20.907Z,98103.49
2018-06-09T10:41:50.626Z,98096.85
2018-06-09T10:44:19.544Z,98101.10
2018-06-09T10:46:48.466Z,98091.61
2018-06-09T10:49:17.517Z,98086.09
2018-06-09T10:51:46.482Z,98080.51
2018-06-09T10:54:15.502Z,98078.31
2018-06-09T10:56:44.505Z,98073.70
2018-06-09T10:59:13.508Z,98068.33
2018-06-09T11:01:42.510Z,98073.33
2018-06-09T11:04:11.460Z,98073.36
2018-06-09T11:06:40.470Z,98060.77
2018-06-09T11:09:10.061Z,98058.04
2018-06-09T11:11:41.040Z,98060.12
2018-06-09T11:14:09.995Z,98048.53
2018-06-09T11:16:39.005Z,98047.41
2018-06-09T11:19:08.045Z,98043.66
2018-06-09T11:21:40.594Z,98043.08
2018-06-09T11:24:12.557Z,98046.26
2018-06-09T11:26:42.193Z,98034.42
2018-06-09T11:29:14.677Z,98042.16
2018-06-09T11:31:43.662Z,98038.58
2018-06-09T11:34:12.671Z,98030.01
2018-06-09T11:36:41.873Z,98032.09
2018-06-09T11:39:10.776Z,98033.41
2018-06-09T11:41:39.833Z,98027.67
2018-06-09T11:44:09.277Z,98019.57
2018-06-09T11:46:38.319Z,98023.02
2018-06-09T11:49:07.227Z,98019.29
2018-06-09T11:51:36.277Z,98009.94
2018-06-09T11:54:05.284Z,98008.33
2018-06-09T11:56:34.270Z,98007.14
2018-06-09T11:59:03.385Z,98008.13
2018-06-09T12:01:32.395Z,98009.04
2018-06-09T12:04:01.301Z,97990.78
2018-06-09T12:06:30.722Z,97987.29
2018-06-09T12:09:00.292Z,97981.70
2018-06-09T12:11:29.427Z,97971.00
2018-06-09T12:13:58.454Z,97976.80
2018-06-09T12:16:27.389Z,97975.25
2018-06-09T12:18:56.336Z,97974.27
2018-06-09T12:21:25.356Z,97964.14
2018-06-09T12:23:54.479Z,97955.35
2018-06-09T12:26:23.469Z,97948.11
2018-06-09T12:28:53.222Z,97943.29
2018-06-09T12:31:22.211Z,97940.05
2018-06-09T12:33:51.201Z,97936.34
2018-06-09T12:36:20.182Z,97928.73
2018-06-09T12:38:49.197Z,97933.29
2018-06-09T12:41:18.628Z,97933.62
2018-06-09T12:43:47.728Z,97927.63
2018-06-09T12:46:16.751Z,97920.89
2018-06-09T12:48:45.700Z,97912.37
2018-06-09T12:51:14.740Z,97904.56
2018-06-09T12:53:43.728Z,97902.90
2018-06-09T12:56:12.639Z,97897.87
2018-06-09T12:58:41.728Z,97895.69
2018-06-09T13:01:10.652Z,97890.03
2018-06-09T13:03:39.584Z,97885.89
2018-06-09T13:06:08.757Z,97876.24
2018-06-09T13:08:37.697Z,97872.14
2018-06-09T13:11:06.621Z,97866.43
2018-06-09T13:13:35.693Z,97858.92
2018-06-09T13:16:04.682Z,97859.08
2018-06-09T13:18:33.615Z,97845.69
2018-06-09T13:21:02.700Z,97846.91
2018-06-09T13:23:31.669Z,97837.92
2018-06-09T13:26:01.611Z,97837.03
2018-06-09T13:28:30.652Z,97843.94
2018-06-09T13:30:59.795Z,97833.73
2018-06-09T13:33:28.804Z,97834.38
2018-06-09T13:35:57.997Z,97826.14
2018-06-09T13:38:27.463Z,97826.67
2018-06-09T13:40:56.540Z,97827.93
2018-06-09T13:43:25.625Z,97826.39
2018-06-09T13:45:54.543Z,97832.69
2018-06-09T13:48:23.503Z,97823.17
2018-06-09T13:50:52.515Z,97831.44
2018-06-09T13:53:22.324Z,97820.27
2018-06-09T13:55:51.219Z,97819.69
2018-06-09T13:58:20.184Z,97819.06
2018-06-09T14:00:49.173Z,97822.14
2018-06-09T14:03:18.788Z,97820.47
2018-06-09T14:05:48.470Z,97812.98
2018-06-09T14:08:17.393Z,97810.44
2018-06-09T14:10:46.304Z,97805.38
2018-06-09T14:13:15.409Z,97807.08
2018-06-09T14:15:44.292Z,97810.62
2018-06-09T14:18:13.251Z,97801.06
2018-06-09T14:20:42.315Z,97797.34
2018-06-09T14:23:11.226Z,97791.89
2018-06-09T14:25:40.123Z,97788.88
2018-06-09T14:28:09.304Z,97782.48
2018-06-09T14:30:38.325Z,97779.14
2018-06-09T14:33:08.992Z,97777.95
2018-06-09T14:35:38.137Z,97776.00
2018-06-09T14:38:07.029Z,97768.94
2018-06-09T14:40:35.974Z,97767.80
2018-06-09T14:43:05.364Z,97771.73
2018-06-09T14:45:34.308Z,97763.98
2018-06-09T14:48:03.357Z,97766.90
2018-06-09T14:50:32.328Z,97761.48
2018-06-09T14:53:01.325Z,97749.20
2018-06-09T14:55:30.352Z,97751.59
2018-06-09T14:57:59.650Z,97752.56
2018-06-09T15:00:28.557Z,97749.88
2018-06-09T15:02:57.490Z,97752.34
2018-06-09T15:05:26.576Z,97742.59
2018-06-09T15:07:55.557Z,97747.66
2018-06-09T15:10:25.048Z,97745.37
2018-06-09T15:12:54.036Z,97753.48
2018-06-09T15:15:23.540Z,97745.37
2018-06-09T15:17:52.504Z,97740.60
2018-06-09T15:20:21.584Z,97744.87
2018-06-09T15:22:50.663Z,97752.50
2018-06-09T15:25:19.683Z,97752.75
2018-06-09T15:27:48.848Z,97748.64
2018-06-09T15:30:17.949Z,97740.78
2018-06-09T15:32:47.901Z,97742.84
2018-06-09T15:35:16.882Z,97750.03
2018-06-09T15:37:45.892Z,97757.50
2018-06-09T15:40:14.824Z,97758.89
2018-06-09T15:42:43.882Z,97750.69
2018-06-09T15:45:12.899Z,97748.98
2018-06-09T15:47:41.848Z,97749.80
2018-06-09T15:50:10.909Z,97749.30
2018-06-09T15:52:39.918Z,97754.20
2018-06-09T15:55:09.469Z,97745.65
2018-06-09T15:57:38.542Z,97751.63
2018-06-09T16:00:07.488Z,97754.81
2018-06-09T16:02:36.846Z,97755.39
2018-06-09T16:05:05.917Z,97758.58
2018-06-09T16:07:34.915Z,97746.20
2018-06-09T16:10:04.443Z,97741.61
2018-06-09T16:12:33.498Z,97739.64
2018-06-09T16:15:02.545Z,97752.17
2018-06-09T16:17:31.479Z,97747.42
2018-06-09T16:20:00.530Z,97743.81
2018-06-09T16:22:29.462Z,97744.95
2018-06-09T16:24:58.483Z,97745.78
2018-06-09T16:27:27.545Z,97752.57
2018-06-09T16:29:56.441Z,97749.53
2018-06-09T16:32:25.408Z,97750.66
2018-06-09T16:34:54.419Z,97751.01
2018-06-09T16:37:23.423Z,97748.06
2018-06-09T16:39:52.999Z,97745.42
2018-06-09T16:42:22.032Z,97741.36
2018-06-09T16:47:25.656Z,97745.06
2018-06-09T16:49:55.141Z,97742.16
2018-06-09T16:52:24.072Z,97742.64
2018-06-09T16:54:53.146Z,97737.78
2018-06-09T16:57:22.060Z,97736.04
2018-06-09T16:59:50.990Z,97742.55
2018-06-09T17:04:54.199Z,97751.16
2018-06-09T17:07:23.172Z,97749.62
2018-06-09T17:09:52.158Z,97755.95
2018-06-09T17:12:21.073Z,97757.55
2018-06-09T17:17:24.217Z,97763.45
2018-06-09T17:19:55.128Z,97757.44
2018-06-09T17:22:24.108Z,97760.87
2018-06-09T17:24:53.050Z,97759.48
2018-06-09T17:27:21.995Z,97758.23
2018-06-09T17:29:50.887Z,97764.22
2018-06-09T17:32:19.905Z,97765.27
2018-06-09T17:34:48.864Z,97768.53
2018-06-09T17:37:17.795Z,97770.64
2018-06-09T17:39:53.824Z,97767.79
2018-06-09T17:42:22.766Z,97778.47
2018-06-09T17:44:51.757Z,97776.48
2018-06-09T17:47:20.799Z,97774.40
2018-06-09T17:49:49.812Z,97773.18
2018-06-09T17:52:18.868Z,97777.32
2018-06-09T17:54:47.876Z,97771.48
2018-06-09T17:57:16.832Z,97767.14
2018-06-09T17:59:45.766Z,97764.77
2018-06-09T18:02:14.729Z,97766.06
2018-06-09T18:04:43.777Z,97758.95
2018-06-09T18:07:13.191Z,97764.31
2018-06-09T18:09:42.205Z,97764.45
2018-06-09T18:12:11.187Z,97773.63
2018-06-09T18:14:40.229Z,97773.65
2018-06-09T18:17:09.292Z,97778.70
2018-06-09T18:19:38.338Z,97780.14
2018-06-09T18:22:07.271Z,97779.09
2018-06-09T18:24:36.236Z,97785.58
2018-06-09T18:27:05.456Z,97782.09
2018-06-09T18:29:34.480Z,97779.14
2018-06-09T18:32:03.636Z,97783.39
2018-06-09T18:34:32.596Z,97794.55
2018-06-09T18:37:01.568Z,97803.18
2018-06-09T18:39:30.626Z,97808.52
2018-06-09T18:41:59.589Z,97814.66
2018-06-09T18:44:28.580Z,97814.98
2018-06-09T18:46:57.524Z,97821.14
2018-06-09T18:49:26.518Z,97823.20
2018-06-09T18:51:55.531Z,97821.63
2018-06-09T18:54:24.599Z,97825.25
2018-06-09T18:56:53.809Z,97829.44
2018-06-09T18:59:22.717Z,97831.55
2018-06-09T19:01:51.696Z,97837.07
2018-06-09T19:04:20.764Z,97832.69
2018-06-09T19:06:49.705Z,97834.41
2018-06-09T19:09:18.952Z,97842.19
2018-06-09T19:11:47.924Z,97834.80
2018-06-09T19:14:16.847Z,97845.62
2018-06-09T19:16:45.939Z,97844.23
2018-06-09T19:19:14.906Z,97847.34
2018-06-09T19:21:43.935Z,97848.80
2018-06-09T19:24:13.022Z,97860.92
2018-06-09T19:26:45.159Z,97868.67
2018-06-09T19:29:14.201Z,97866.75
2018-06-09T19:31:43.140Z,97860.45
2018-06-09T19:34:12.120Z,97865.17
2018-06-09T19:36:41.114Z,97866.02
2018-06-09T19:39:10.040Z,97868.50
2018-06-09T19:41:38.956Z,97875.13
2018-06-09T19:44:07.951Z,97874.30
2018-06-09T19:46:36.928Z,97880.11
2018-06-09T19:49:05.988Z,97882.35
2018-06-09T19:51:35.102Z,97870.51
2018-06-09T19:54:04.188Z,97872.72
2018-06-09T19:56:33.172Z,97868.05
2018-06-09T19:59:02.122Z,97880.20
2018-06-09T20:01:31.724Z,97868.61
2018-06-09T20:04:00.627Z,97878.52
2018-06-09T20:06:30.431Z,97881.54
2018-06-09T20:08:59.347Z,97877.97
2018-06-09T20:11:28.292Z,97881.83
2018-06-09T20:13:57.256Z,97882.94
2018-06-09T20:16:26.831Z,97886.82
2018-06-09T20:18:56.698Z,97888.15
2018-06-09T20:21:25.721Z,97889.83
2018-06-09T20:23:54.647Z,97894.25
2018-06-09T20:26:23.551Z,97885.69
2018-06-09T20:28:52.757Z,97890.91
2018-06-09T20:31:22.094Z,97896.16
2018-06-09T20:33:51.086Z,97897.52
2018-06-09T20:36:20.185Z,97911.03
2018-06-09T20:38:50.170Z,97906.90
2018-06-09T20:41:19.102Z,97912.97
2018-06-09T20:43:48.261Z,97919.30
2018-06-09T20:46:17.227Z,97919.30
2018-06-09T20:48:46.941Z,97925.34
2018-06-09T20:51:15.989Z,97921.49
2018-06-09T20:53:44.976Z,97920.97
2018-06-09T20:56:14.019Z,97920.13
2018-06-09T20:58:43.057Z,97923.44
2018-06-09T21:01:12.792Z,97928.39
2018-06-09T21:03:42.822Z,97938.88
2018-06-09T21:06:12.703Z,97940.52
2018-06-09T21:08:41.654Z,97944.09
2018-06-09T21:11:10.579Z,97939.95
2018-06-09T21:13:39.538Z,97935.84
2018-06-09T21:16:08.453Z,97937.77
2018-06-09T21:18:37.413Z,97942.15
2018-06-09T21:21:07.501Z,97943.79
2018-06-09T21:23:36.987Z,97939.11
2018-06-09T21:26:06.037Z,97936.91
2018-06-09T21:28:40.213Z,97933.32
2018-06-09T21:31:14.374Z,97939.66
2018-06-09T21:33:59.224Z,97941.04
2018-06-09T21:36:28.324Z,97940.75
2018-06-09T21:39:00.654Z,97935.23
2018-06-09T21:41:36.249Z,97932.48
2018-06-09T21:44:10.392Z,97931.38
2018-06-09T21:46:44.330Z,97931.06
2018-06-09T21:49:13.889Z,97932.19
2018-06-09T21:51:42.807Z,97932.73
2018-06-09T21:54:13.411Z,97928.32
2018-06-09T21:56:43.314Z,97931.62
2018-06-09T21:59:12.376Z,97923.62
2018-06-09T22:01:41.421Z,97931.56
2018-06-09T22:04:10.396Z,97933.77
2018-06-09T22:06:39.425Z,97932.14
2018-06-09T22:09:09.075Z,97916.18
2018-06-09T22:11:38.932Z,97926.34
2018-06-09T22:14:07.949Z,97929.94
2018-06-09T22:16:36.855Z,97929.36
2018-06-09T22:19:05.990Z,97934.58
2018-06-09T22:21:34.919Z,97933.20
2018-06-09T22:24:03.888Z,97927.97
2018-06-09T22:26:33.188Z,97934.30
2018-06-09T22:29:02.128Z,97930.72
2018-06-09T22:31:31.145Z,97928.55
2018-06-09T22:34:00.179Z,97930.46
2018-06-09T22:36:29.132Z,97933.76
2018-06-09T22:38:58.059Z,97935.13
2018-06-09T22:41:27.102Z,97939.52
2018-06-09T22:43:56.089Z,97932.07
2018-06-09T22:46:25.008Z,97934.56
2018-06-09T22:48:54.204Z,97932.09
2018-06-09T22:51:23.216Z,97929.89
2018-06-09T22:53:52.133Z,97933.76
2018-06-09T22:56:22.096Z,97934.02
2018-06-09T22:58:51.415Z,97937.31
2018-06-09T23:01:20.979Z,97933.47
2018-06-09T23:03:49.948Z,97935.66
2018-06-09T23:06:18.871Z,97926.31
2018-06-09T23:08:47.775Z,97929.87
2018-06-09T23:11:16.767Z,97929.61
2018-06-09T23:13:46.438Z,97926.86
2018-06-09T23:16:15.355Z,97925.77
2018-06-09T23:18:44.431Z,97926.34
2018-06-09T23:21:13.330Z,97920.84
2018-06-09T23:23:42.251Z,97922.47
2018-06-09T23:26:11.245Z,97926.31
2018-06-09T23:28:40.294Z,97924.10
2018-06-09T23:31:09.179Z,97925.22
2018-06-09T23:33:39.163Z,97926.88
2018-06-09T23:36:08.091Z,97927.99
2018-06-09T23:38:37.011Z,97926.33
2018-06-09T23:41:07.135Z,97923.31
2018-06-09T23:43:36.072Z,97921.94
2018-06-09T23:46:05.003Z,97931.56
2018-06-09T23:48:33.976Z,97932.95
2018-06-09T23:51:02.910Z,97931.03
2018-06-09T23:53:31.822Z,97933.73
2018-06-09T23:56:00.862Z,97926.86
2018-06-09T23:58:29.840Z,97930.13
